sensor_id;sensor_type;location;lat;lon;timestamp;temperature;humidity
17092;DHT22;8661;45.700;4.880;2022-09-02T00:02:01;20.10;99.90
17092;DHT22;8661;45.700;4.880;2022-09-02T00:04:28;20.00;99.90
17092;DHT22;8661;45.700;4.880;2022-09-02T00:06:56;19.90;99.90
17092;DHT22;8661;45.700;4.880;2022-09-02T00:09:24;19.90;99.90
17092;DHT22;8661;45.700;4.880;2022-09-02T00:11:52;19.90;99.90
17092;DHT22;8661;45.700;4.880;2022-09-02T00:14:28;19.80;99.90
17092;DHT22;8661;45.700;4.880;2022-09-02T00:16:57;19.90;99.90
17092;DHT22;8661;45.700;4.880;2022-09-02T00:19:26;19.80;99.90
17092;DHT22;8661;45.700;4.880;2022-09-02T00:21:55;19.90;99.90
17092;DHT22;8661;45.700;4.880;2022-09-02T00:24:23;19.90;99.90
17092;DHT22;8661;45.700;4.880;2022-09-02T00:26:50;19.80;99.90
17092;DHT22;8661;45.700;4.880;2022-09-02T00:29:17;19.80;99.90
17092;DHT22;8661;45.700;4.880;2022-09-02T00:31:45;19.80;99.90
17092;DHT22;8661;45.700;4.880;2022-09-02T00:34:14;19.80;99.90
17092;DHT22;8661;45.700;4.880;2022-09-02T00:36:41;19.80;99.90
17092;DHT22;8661;45.700;4.880;2022-09-02T00:39:08;19.80;99.90
17092;DHT22;8661;45.700;4.880;2022-09-02T00:41:36;19.80;99.90
17092;DHT22;8661;45.700;4.880;2022-09-02T00:44:07;19.80;99.90
17092;DHT22;8661;45.700;4.880;2022-09-02T00:46:35;19.80;99.90
17092;DHT22;8661;45.700;4.880;2022-09-02T00:49:07;19.70;99.90
17092;DHT22;8661;45.700;4.880;2022-09-02T00:51:41;19.60;99.90
17092;DHT22;8661;45.700;4.880;2022-09-02T00:54:10;19.60;99.90
17092;DHT22;8661;45.700;4.880;2022-09-02T00:56:41;19.50;99.90
17092;DHT22;8661;45.700;4.880;2022-09-02T00:59:09;19.40;99.90
17092;DHT22;8661;45.700;4.880;2022-09-02T01:01:38;19.40;99.90
17092;DHT22;8661;45.700;4.880;2022-09-02T01:04:05;19.30;99.90
17092;DHT22;8661;45.700;4.880;2022-09-02T01:06:32;19.30;99.90
17092;DHT22;8661;45.700;4.880;2022-09-02T01:09:03;19.30;99.90
17092;DHT22;8661;45.700;4.880;2022-09-02T01:11:36;19.30;99.90
17092;DHT22;8661;45.700;4.880;2022-09-02T01:14:03;19.40;99.90
17092;DHT22;8661;45.700;4.880;2022-09-02T01:16:37;19.30;99.90
17092;DHT22;8661;45.700;4.880;2022-09-02T01:19:19;19.40;99.90
17092;DHT22;8661;45.700;4.880;2022-09-02T01:21:48;19.40;99.90
17092;DHT22;8661;45.700;4.880;2022-09-02T01:24:16;19.40;99.90
17092;DHT22;8661;45.700;4.880;2022-09-02T01:26:44;19.40;99.90
17092;DHT22;8661;45.700;4.880;2022-09-02T01:29:11;19.30;99.90
17092;DHT22;8661;45.700;4.880;2022-09-02T01:31:38;19.30;99.90
17092;DHT22;8661;45.700;4.880;2022-09-02T01:34:05;19.30;99.90
17092;DHT22;8661;45.700;4.880;2022-09-02T01:36:33;19.20;99.90
17092;DHT22;8661;45.700;4.880;2022-09-02T01:39:04;19.20;99.90
17092;DHT22;8661;45.700;4.880;2022-09-02T01:41:30;19.20;99.90
17092;DHT22;8661;45.700;4.880;2022-09-02T01:43:57;19.20;99.90
17092;DHT22;8661;45.700;4.880;2022-09-02T01:46:24;19.20;99.90
17092;DHT22;8661;45.700;4.880;2022-09-02T01:48:51;19.10;99.90
17092;DHT22;8661;45.700;4.880;2022-09-02T01:51:19;19.10;99.90
17092;DHT22;8661;45.700;4.880;2022-09-02T01:53:47;19.00;99.90
17092;DHT22;8661;45.700;4.880;2022-09-02T01:56:17;18.90;99.90
17092;DHT22;8661;45.700;4.880;2022-09-02T01:58:47;18.90;99.90
17092;DHT22;8661;45.700;4.880;2022-09-02T02:01:14;18.80;99.90
17092;DHT22;8661;45.700;4.880;2022-09-02T02:03:40;18.80;99.90
17092;DHT22;8661;45.700;4.880;2022-09-02T02:06:09;18.90;99.90
17092;DHT22;8661;45.700;4.880;2022-09-02T02:08:37;18.90;99.90
17092;DHT22;8661;45.700;4.880;2022-09-02T02:11:05;18.80;99.90
17092;DHT22;8661;45.700;4.880;2022-09-02T02:13:33;18.80;99.90
17092;DHT22;8661;45.700;4.880;2022-09-02T02:16:00;18.80;99.90
17092;DHT22;8661;45.700;4.880;2022-09-02T02:18:27;18.80;99.90
17092;DHT22;8661;45.700;4.880;2022-09-02T02:20:55;18.80;99.90
17092;DHT22;8661;45.700;4.880;2022-09-02T02:23:22;18.80;99.90
17092;DHT22;8661;45.700;4.880;2022-09-02T02:25:49;18.80;99.90
17092;DHT22;8661;45.700;4.880;2022-09-02T02:28:16;18.70;99.90
17092;DHT22;8661;45.700;4.880;2022-09-02T02:30:45;18.70;99.90
17092;DHT22;8661;45.700;4.880;2022-09-02T02:33:11;18.70;99.90
17092;DHT22;8661;45.700;4.880;2022-09-02T02:35:39;18.70;99.90
17092;DHT22;8661;45.700;4.880;2022-09-02T02:38:07;18.70;99.90
17092;DHT22;8661;45.700;4.880;2022-09-02T02:40:35;18.70;99.90
17092;DHT22;8661;45.700;4.880;2022-09-02T02:43:02;18.70;99.90
17092;DHT22;8661;45.700;4.880;2022-09-02T02:45:29;18.70;99.90
17092;DHT22;8661;45.700;4.880;2022-09-02T02:47:57;18.70;99.90
17092;DHT22;8661;45.700;4.880;2022-09-02T02:50:26;18.70;99.90
17092;DHT22;8661;45.700;4.880;2022-09-02T02:52:53;18.70;99.90
17092;DHT22;8661;45.700;4.880;2022-09-02T02:55:21;18.70;99.90
17092;DHT22;8661;45.700;4.880;2022-09-02T02:57:49;18.70;99.90
17092;DHT22;8661;45.700;4.880;2022-09-02T03:00:18;18.70;99.90
17092;DHT22;8661;45.700;4.880;2022-09-02T03:02:46;18.70;99.90
17092;DHT22;8661;45.700;4.880;2022-09-02T03:05:15;18.60;99.90
17092;DHT22;8661;45.700;4.880;2022-09-02T03:07:42;18.70;99.90
17092;DHT22;8661;45.700;4.880;2022-09-02T03:10:11;18.70;99.90
17092;DHT22;8661;45.700;4.880;2022-09-02T03:12:38;18.60;99.90
17092;DHT22;8661;45.700;4.880;2022-09-02T03:15:06;18.60;99.90
17092;DHT22;8661;45.700;4.880;2022-09-02T03:17:35;18.50;99.90
17092;DHT22;8661;45.700;4.880;2022-09-02T03:20:03;18.50;99.90
17092;DHT22;8661;45.700;4.880;2022-09-02T03:22:33;18.50;99.90
17092;DHT22;8661;45.700;4.880;2022-09-02T03:25:00;18.60;99.90
17092;DHT22;8661;45.700;4.880;2022-09-02T03:27:27;18.50;99.90
17092;DHT22;8661;45.700;4.880;2022-09-02T03:29:54;18.50;99.90
17092;DHT22;8661;45.700;4.880;2022-09-02T03:32:21;18.50;99.90
17092;DHT22;8661;45.700;4.880;2022-09-02T03:34:48;18.50;99.90
17092;DHT22;8661;45.700;4.880;2022-09-02T03:37:15;18.50;99.90
17092;DHT22;8661;45.700;4.880;2022-09-02T03:39:43;18.50;99.90
17092;DHT22;8661;45.700;4.880;2022-09-02T03:42:10;18.50;99.90
17092;DHT22;8661;45.700;4.880;2022-09-02T03:44:38;18.50;99.90
17092;DHT22;8661;45.700;4.880;2022-09-02T03:47:08;18.50;99.90
17092;DHT22;8661;45.700;4.880;2022-09-02T03:49:35;18.60;99.90
17092;DHT22;8661;45.700;4.880;2022-09-02T03:52:02;18.60;99.90
17092;DHT22;8661;45.700;4.880;2022-09-02T03:54:29;18.60;99.90
17092;DHT22;8661;45.700;4.880;2022-09-02T03:56:57;18.60;99.90
17092;DHT22;8661;45.700;4.880;2022-09-02T03:59:24;18.60;99.90
17092;DHT22;8661;45.700;4.880;2022-09-02T04:01:51;18.60;99.90
17092;DHT22;8661;45.700;4.880;2022-09-02T04:04:19;18.60;99.90
17092;DHT22;8661;45.700;4.880;2022-09-02T04:06:46;18.60;99.90
17092;DHT22;8661;45.700;4.880;2022-09-02T04:09:13;18.60;99.90
17092;DHT22;8661;45.700;4.880;2022-09-02T04:11:40;18.60;99.90
17092;DHT22;8661;45.700;4.880;2022-09-02T04:14:09;18.60;99.90
17092;DHT22;8661;45.700;4.880;2022-09-02T04:16:36;18.60;99.90
17092;DHT22;8661;45.700;4.880;2022-09-02T04:19:03;18.50;99.90
17092;DHT22;8661;45.700;4.880;2022-09-02T04:21:32;18.50;99.90
17092;DHT22;8661;45.700;4.880;2022-09-02T04:23:59;18.50;99.90
17092;DHT22;8661;45.700;4.880;2022-09-02T04:26:26;18.40;99.90
17092;DHT22;8661;45.700;4.880;2022-09-02T04:28:53;18.40;99.90
17092;DHT22;8661;45.700;4.880;2022-09-02T04:31:24;18.30;99.90
17092;DHT22;8661;45.700;4.880;2022-09-02T04:33:51;18.30;99.90
17092;DHT22;8661;45.700;4.880;2022-09-02T04:36:19;18.40;99.90
17092;DHT22;8661;45.700;4.880;2022-09-02T04:38:47;18.40;99.90
17092;DHT22;8661;45.700;4.880;2022-09-02T04:41:16;18.40;99.90
17092;DHT22;8661;45.700;4.880;2022-09-02T04:43:43;18.40;99.90
17092;DHT22;8661;45.700;4.880;2022-09-02T04:46:13;18.40;99.90
17092;DHT22;8661;45.700;4.880;2022-09-02T04:48:42;18.40;99.90
17092;DHT22;8661;45.700;4.880;2022-09-02T04:51:11;18.40;99.90
17092;DHT22;8661;45.700;4.880;2022-09-02T04:53:39;18.50;99.90
17092;DHT22;8661;45.700;4.880;2022-09-02T04:56:08;18.50;99.90
17092;DHT22;8661;45.700;4.880;2022-09-02T04:58:36;18.50;99.90
17092;DHT22;8661;45.700;4.880;2022-09-02T05:01:05;18.60;99.90
17092;DHT22;8661;45.700;4.880;2022-09-02T05:03:31;18.60;99.90
17092;DHT22;8661;45.700;4.880;2022-09-02T05:06:02;18.70;99.90
17092;DHT22;8661;45.700;4.880;2022-09-02T05:08:29;18.70;99.90
17092;DHT22;8661;45.700;4.880;2022-09-02T05:10:56;18.70;99.90
17092;DHT22;8661;45.700;4.880;2022-09-02T05:13:23;18.70;99.90
17092;DHT22;8661;45.700;4.880;2022-09-02T05:18:32;18.70;99.90
17092;DHT22;8661;45.700;4.880;2022-09-02T05:21:03;18.70;99.90
17092;DHT22;8661;45.700;4.880;2022-09-02T05:23:38;18.60;99.90
17092;DHT22;8661;45.700;4.880;2022-09-02T05:26:10;18.60;99.90
17092;DHT22;8661;45.700;4.880;2022-09-02T05:28:39;18.60;99.90
17092;DHT22;8661;45.700;4.880;2022-09-02T05:31:09;18.70;99.90
17092;DHT22;8661;45.700;4.880;2022-09-02T05:33:37;18.70;99.90
17092;DHT22;8661;45.700;4.880;2022-09-02T05:36:08;18.70;99.90
17092;DHT22;8661;45.700;4.880;2022-09-02T05:38:37;18.70;99.90
17092;DHT22;8661;45.700;4.880;2022-09-02T05:41:04;18.70;99.90
17092;DHT22;8661;45.700;4.880;2022-09-02T05:43:34;18.70;99.90
17092;DHT22;8661;45.700;4.880;2022-09-02T05:46:03;18.70;99.90
17092;DHT22;8661;45.700;4.880;2022-09-02T05:48:32;18.80;99.90
17092;DHT22;8661;45.700;4.880;2022-09-02T05:51:18;18.90;99.90
17092;DHT22;8661;45.700;4.880;2022-09-02T05:53:50;19.70;99.90
17092;DHT22;8661;45.700;4.880;2022-09-02T05:56:20;20.30;99.90
17092;DHT22;8661;45.700;4.880;2022-09-02T05:58:50;20.80;99.90
17092;DHT22;8661;45.700;4.880;2022-09-02T06:01:18;20.90;99.90
17092;DHT22;8661;45.700;4.880;2022-09-02T06:03:45;21.10;99.90
17092;DHT22;8661;45.700;4.880;2022-09-02T06:06:13;21.30;99.90
17092;DHT22;8661;45.700;4.880;2022-09-02T06:08:41;21.50;99.90
17092;DHT22;8661;45.700;4.880;2022-09-02T06:11:09;21.80;99.90
17092;DHT22;8661;45.700;4.880;2022-09-02T06:13:39;22.10;99.90
17092;DHT22;8661;45.700;4.880;2022-09-02T06:16:07;22.20;99.90
17092;DHT22;8661;45.700;4.880;2022-09-02T06:18:35;22.30;99.90
17092;DHT22;8661;45.700;4.880;2022-09-02T06:21:05;22.60;99.90
17092;DHT22;8661;45.700;4.880;2022-09-02T06:23:33;22.90;99.90
17092;DHT22;8661;45.700;4.880;2022-09-02T06:26:02;23.30;99.90
17092;DHT22;8661;45.700;4.880;2022-09-02T06:28:29;23.60;99.90
17092;DHT22;8661;45.700;4.880;2022-09-02T06:30:57;23.80;99.90
17092;DHT22;8661;45.700;4.880;2022-09-02T06:33:24;24.10;99.40
17092;DHT22;8661;45.700;4.880;2022-09-02T06:35:51;24.30;98.30
17092;DHT22;8661;45.700;4.880;2022-09-02T06:38:17;24.40;97.40
17092;DHT22;8661;45.700;4.880;2022-09-02T06:40:46;24.40;96.60
17092;DHT22;8661;45.700;4.880;2022-09-02T06:43:20;24.20;96.80
17092;DHT22;8661;45.700;4.880;2022-09-02T06:45:48;24.20;96.80
17092;DHT22;8661;45.700;4.880;2022-09-02T06:48:32;24.40;96.40
17092;DHT22;8661;45.700;4.880;2022-09-02T06:51:00;24.30;95.00
17092;DHT22;8661;45.700;4.880;2022-09-02T06:53:43;24.30;95.20
17092;DHT22;8661;45.700;4.880;2022-09-02T06:56:26;24.50;94.40
17092;DHT22;8661;45.700;4.880;2022-09-02T06:58:55;24.70;94.20
17092;DHT22;8661;45.700;4.880;2022-09-02T07:01:27;24.60;94.70
17092;DHT22;8661;45.700;4.880;2022-09-02T07:03:54;24.50;95.30
17092;DHT22;8661;45.700;4.880;2022-09-02T07:06:41;24.50;95.00
17092;DHT22;8661;45.700;4.880;2022-09-02T07:09:11;24.50;94.90
17092;DHT22;8661;45.700;4.880;2022-09-02T07:11:40;24.40;94.90
17092;DHT22;8661;45.700;4.880;2022-09-02T07:14:14;24.40;95.20
17092;DHT22;8661;45.700;4.880;2022-09-02T07:16:44;24.40;95.80
17092;DHT22;8661;45.700;4.880;2022-09-02T07:19:13;24.50;96.00
17092;DHT22;8661;45.700;4.880;2022-09-02T07:21:45;24.50;95.60
17092;DHT22;8661;45.700;4.880;2022-09-02T07:24:14;24.70;95.60
17092;DHT22;8661;45.700;4.880;2022-09-02T07:26:42;24.90;94.70
17092;DHT22;8661;45.700;4.880;2022-09-02T07:29:09;25.00;94.00
17092;DHT22;8661;45.700;4.880;2022-09-02T07:31:39;25.40;93.60
17092;DHT22;8661;45.700;4.880;2022-09-02T07:34:12;25.80;92.00
17092;DHT22;8661;45.700;4.880;2022-09-02T07:36:42;26.00;90.60
17092;DHT22;8661;45.700;4.880;2022-09-02T07:39:11;26.20;89.80
17092;DHT22;8661;45.700;4.880;2022-09-02T07:41:41;26.20;90.30
17092;DHT22;8661;45.700;4.880;2022-09-02T07:44:08;26.50;89.10
17092;DHT22;8661;45.700;4.880;2022-09-02T07:46:37;26.70;87.30
17092;DHT22;8661;45.700;4.880;2022-09-02T07:49:06;27.00;87.20
17092;DHT22;8661;45.700;4.880;2022-09-02T07:51:34;27.30;86.10
17092;DHT22;8661;45.700;4.880;2022-09-02T07:54:02;27.70;85.70
17092;DHT22;8661;45.700;4.880;2022-09-02T07:56:30;27.80;84.90
17092;DHT22;8661;45.700;4.880;2022-09-02T07:58:57;27.70;82.30
17092;DHT22;8661;45.700;4.880;2022-09-02T08:01:25;27.60;83.00
17092;DHT22;8661;45.700;4.880;2022-09-02T08:03:56;27.50;82.30
17092;DHT22;8661;45.700;4.880;2022-09-02T08:06:23;27.20;81.50
17092;DHT22;8661;45.700;4.880;2022-09-02T08:08:52;26.80;82.60
17092;DHT22;8661;45.700;4.880;2022-09-02T08:11:19;26.50;82.90
17092;DHT22;8661;45.700;4.880;2022-09-02T08:14:00;26.20;82.40
17092;DHT22;8661;45.700;4.880;2022-09-02T08:16:49;26.20;83.70
17092;DHT22;8661;45.700;4.880;2022-09-02T08:19:21;26.70;85.40
17092;DHT22;8661;45.700;4.880;2022-09-02T08:21:49;27.20;84.40
17092;DHT22;8661;45.700;4.880;2022-09-02T08:24:29;27.40;82.50
17092;DHT22;8661;45.700;4.880;2022-09-02T08:26:58;27.50;81.30
17092;DHT22;8661;45.700;4.880;2022-09-02T08:29:35;27.50;80.70
17092;DHT22;8661;45.700;4.880;2022-09-02T08:32:30;27.80;79.90
17092;DHT22;8661;45.700;4.880;2022-09-02T08:35:03;28.30;79.80
17092;DHT22;8661;45.700;4.880;2022-09-02T08:37:31;29.10;77.60
17092;DHT22;8661;45.700;4.880;2022-09-02T08:39:59;29.50;77.50
17092;DHT22;8661;45.700;4.880;2022-09-02T08:42:34;29.80;77.60
17092;DHT22;8661;45.700;4.880;2022-09-02T08:45:19;29.60;76.00
17092;DHT22;8661;45.700;4.880;2022-09-02T08:47:59;29.50;74.20
17092;DHT22;8661;45.700;4.880;2022-09-02T08:50:31;29.50;73.70
17092;DHT22;8661;45.700;4.880;2022-09-02T08:53:18;29.30;74.60
17092;DHT22;8661;45.700;4.880;2022-09-02T08:55:51;29.30;72.90
17092;DHT22;8661;45.700;4.880;2022-09-02T08:58:26;29.00;73.80
17092;DHT22;8661;45.700;4.880;2022-09-02T09:01:13;28.70;75.40
17092;DHT22;8661;45.700;4.880;2022-09-02T09:04:03;28.40;75.80
17092;DHT22;8661;45.700;4.880;2022-09-02T09:06:40;28.70;78.10
17092;DHT22;8661;45.700;4.880;2022-09-02T09:09:19;29.00;76.80
17092;DHT22;8661;45.700;4.880;2022-09-02T09:11:55;28.90;76.10
17092;DHT22;8661;45.700;4.880;2022-09-02T09:14:30;28.50;76.20
17092;DHT22;8661;45.700;4.880;2022-09-02T09:17:05;28.20;76.60
17092;DHT22;8661;45.700;4.880;2022-09-02T09:19:48;27.80;77.20
17092;DHT22;8661;45.700;4.880;2022-09-02T09:22:30;27.60;78.80
17092;DHT22;8661;45.700;4.880;2022-09-02T09:25:18;27.80;78.60
17092;DHT22;8661;45.700;4.880;2022-09-02T09:27:47;28.20;77.30
17092;DHT22;8661;45.700;4.880;2022-09-02T09:30:14;28.50;76.40
17092;DHT22;8661;45.700;4.880;2022-09-02T09:32:55;28.50;76.10
17092;DHT22;8661;45.700;4.880;2022-09-02T09:35:25;28.60;76.00
17092;DHT22;8661;45.700;4.880;2022-09-02T09:37:54;28.40;75.80
17092;DHT22;8661;45.700;4.880;2022-09-02T09:40:31;28.10;76.10
17092;DHT22;8661;45.700;4.880;2022-09-02T09:43:11;27.80;77.00
17092;DHT22;8661;45.700;4.880;2022-09-02T09:45:42;27.50;77.60
17092;DHT22;8661;45.700;4.880;2022-09-02T09:48:33;27.10;78.70
17092;DHT22;8661;45.700;4.880;2022-09-02T09:51:13;26.70;79.90
17092;DHT22;8661;45.700;4.880;2022-09-02T09:53:45;26.30;84.60
17092;DHT22;8661;45.700;4.880;2022-09-02T09:56:28;25.80;89.10
17092;DHT22;8661;45.700;4.880;2022-09-02T09:58:57;25.20;92.10
17092;DHT22;8661;45.700;4.880;2022-09-02T10:01:27;24.80;93.30
17092;DHT22;8661;45.700;4.880;2022-09-02T10:03:57;24.50;94.50
17092;DHT22;8661;45.700;4.880;2022-09-02T10:06:40;24.30;96.60
17092;DHT22;8661;45.700;4.880;2022-09-02T10:09:31;24.20;98.90
17092;DHT22;8661;45.700;4.880;2022-09-02T10:12:00;24.10;99.90
17092;DHT22;8661;45.700;4.880;2022-09-02T10:14:35;24.30;99.90
17092;DHT22;8661;45.700;4.880;2022-09-02T10:17:17;24.40;99.90
17092;DHT22;8661;45.700;4.880;2022-09-02T10:19:54;24.60;99.90
17092;DHT22;8661;45.700;4.880;2022-09-02T10:22:39;24.90;99.90
17092;DHT22;8661;45.700;4.880;2022-09-02T10:25:23;25.50;99.90
17092;DHT22;8661;45.700;4.880;2022-09-02T10:27:58;26.40;99.90
17092;DHT22;8661;45.700;4.880;2022-09-02T10:30:31;27.20;98.90
17092;DHT22;8661;45.700;4.880;2022-09-02T10:33:18;27.70;97.80
17092;DHT22;8661;45.700;4.880;2022-09-02T10:35:50;27.90;95.80
17092;DHT22;8661;45.700;4.880;2022-09-02T10:38:30;27.90;94.80
17092;DHT22;8661;45.700;4.880;2022-09-02T10:41:08;28.20;94.00
17092;DHT22;8661;45.700;4.880;2022-09-02T10:46:44;29.00;92.90
17092;DHT22;8661;45.700;4.880;2022-09-02T10:49:23;29.00;91.40
17092;DHT22;8661;45.700;4.880;2022-09-02T10:52:02;29.70;90.90
17092;DHT22;8661;45.700;4.880;2022-09-02T10:54:41;30.50;89.30
17092;DHT22;8661;45.700;4.880;2022-09-02T10:57:17;31.20;85.70
17092;DHT22;8661;45.700;4.880;2022-09-02T10:59:49;32.30;82.80
17092;DHT22;8661;45.700;4.880;2022-09-02T11:02:22;32.90;79.30
17092;DHT22;8661;45.700;4.880;2022-09-02T11:04:55;33.00;78.40
17092;DHT22;8661;45.700;4.880;2022-09-02T11:07:28;32.70;75.90
17092;DHT22;8661;45.700;4.880;2022-09-02T11:10:03;32.40;77.70
17092;DHT22;8661;45.700;4.880;2022-09-02T11:12:41;32.20;78.80
17092;DHT22;8661;45.700;4.880;2022-09-02T11:15:16;32.10;78.20
17092;DHT22;8661;45.700;4.880;2022-09-02T11:17:48;32.00;76.10
17092;DHT22;8661;45.700;4.880;2022-09-02T11:20:27;31.80;75.20
17092;DHT22;8661;45.700;4.880;2022-09-02T11:23:00;31.70;72.00
17092;DHT22;8661;45.700;4.880;2022-09-02T11:25:31;31.50;71.80
17092;DHT22;8661;45.700;4.880;2022-09-02T11:28:06;31.40;72.20
17092;DHT22;8661;45.700;4.880;2022-09-02T11:30:44;31.10;72.90
17092;DHT22;8661;45.700;4.880;2022-09-02T11:33:17;31.40;72.40
17092;DHT22;8661;45.700;4.880;2022-09-02T11:35:46;31.60;70.40
17092;DHT22;8661;45.700;4.880;2022-09-02T11:38:27;31.60;70.00
17092;DHT22;8661;45.700;4.880;2022-09-02T11:44:07;31.70;66.90
17092;DHT22;8661;45.700;4.880;2022-09-02T11:47:06;31.10;66.40
17092;DHT22;8661;45.700;4.880;2022-09-02T11:49:49;30.70;66.40
17092;DHT22;8661;45.700;4.880;2022-09-02T11:52:32;30.50;67.00
17092;DHT22;8661;45.700;4.880;2022-09-02T11:55:13;30.40;67.40
17092;DHT22;8661;45.700;4.880;2022-09-02T11:57:41;30.30;67.90
17092;DHT22;8661;45.700;4.880;2022-09-02T12:00:25;30.20;68.30
17092;DHT22;8661;45.700;4.880;2022-09-02T12:02:58;30.10;67.10
17092;DHT22;8661;45.700;4.880;2022-09-02T12:05:48;29.90;66.90
17092;DHT22;8661;45.700;4.880;2022-09-02T12:11:48;29.60;68.30
17092;DHT22;8661;45.700;4.880;2022-09-02T12:14:59;29.50;68.40
17092;DHT22;8661;45.700;4.880;2022-09-02T12:24:48;29.60;67.20
17092;DHT22;8661;45.700;4.880;2022-09-02T12:35:48;29.50;67.10
17092;DHT22;8661;45.700;4.880;2022-09-02T12:38:34;29.60;67.20
17092;DHT22;8661;45.700;4.880;2022-09-02T12:44:43;29.70;60.60
17092;DHT22;8661;45.700;4.880;2022-09-02T12:47:28;29.70;61.00
17092;DHT22;8661;45.700;4.880;2022-09-02T12:50:04;29.80;61.10
17092;DHT22;8661;45.700;4.880;2022-09-02T12:52:53;30.00;61.20
17092;DHT22;8661;45.700;4.880;2022-09-02T12:55:36;30.10;61.20
17092;DHT22;8661;45.700;4.880;2022-09-02T12:58:13;30.30;60.80
17092;DHT22;8661;45.700;4.880;2022-09-02T13:00:57;30.30;60.30
17092;DHT22;8661;45.700;4.880;2022-09-02T13:06:45;30.40;60.50
17092;DHT22;8661;45.700;4.880;2022-09-02T13:12:56;30.70;62.10
17092;DHT22;8661;45.700;4.880;2022-09-02T13:15:53;30.80;61.50
17092;DHT22;8661;45.700;4.880;2022-09-02T13:28:28;32.60;60.40
17092;DHT22;8661;45.700;4.880;2022-09-02T13:31:12;33.40;58.70
17092;DHT22;8661;45.700;4.880;2022-09-02T13:33:47;34.00;58.60
17092;DHT22;8661;45.700;4.880;2022-09-02T13:36:23;34.30;57.30
17092;DHT22;8661;45.700;4.880;2022-09-02T13:39:09;34.50;57.10
17092;DHT22;8661;45.700;4.880;2022-09-02T13:41:38;34.60;55.30
17092;DHT22;8661;45.700;4.880;2022-09-02T13:44:29;34.50;56.50
17092;DHT22;8661;45.700;4.880;2022-09-02T13:47:13;34.60;56.60
17092;DHT22;8661;45.700;4.880;2022-09-02T13:49:49;34.80;55.10
17092;DHT22;8661;45.700;4.880;2022-09-02T13:52:23;34.80;56.10
17092;DHT22;8661;45.700;4.880;2022-09-02T13:55:02;34.90;56.10
17092;DHT22;8661;45.700;4.880;2022-09-02T13:57:41;34.50;56.40
17092;DHT22;8661;45.700;4.880;2022-09-02T14:00:40;33.80;57.50
17092;DHT22;8661;45.700;4.880;2022-09-02T14:03:16;34.00;56.90
17092;DHT22;8661;45.700;4.880;2022-09-02T14:06:01;34.10;56.60
17092;DHT22;8661;45.700;4.880;2022-09-02T14:08:37;34.30;56.50
17092;DHT22;8661;45.700;4.880;2022-09-02T14:11:19;34.00;56.20
17092;DHT22;8661;45.700;4.880;2022-09-02T14:13:56;34.00;56.20
17092;DHT22;8661;45.700;4.880;2022-09-02T14:16:35;34.00;55.40
17092;DHT22;8661;45.700;4.880;2022-09-02T14:19:24;34.00;55.50
17092;DHT22;8661;45.700;4.880;2022-09-02T14:22:20;33.90;55.20
17092;DHT22;8661;45.700;4.880;2022-09-02T14:24:58;34.10;55.60
17092;DHT22;8661;45.700;4.880;2022-09-02T14:27:48;34.30;55.20
17092;DHT22;8661;45.700;4.880;2022-09-02T14:30:35;34.50;54.90
17092;DHT22;8661;45.700;4.880;2022-09-02T14:33:43;34.60;54.40
17092;DHT22;8661;45.700;4.880;2022-09-02T14:36:34;34.60;54.30
17092;DHT22;8661;45.700;4.880;2022-09-02T14:39:13;34.60;54.60
17092;DHT22;8661;45.700;4.880;2022-09-02T14:41:54;34.60;55.00
17092;DHT22;8661;45.700;4.880;2022-09-02T14:44:34;34.40;55.20
17092;DHT22;8661;45.700;4.880;2022-09-02T14:47:13;34.40;55.40
17092;DHT22;8661;45.700;4.880;2022-09-02T14:49:46;34.90;55.40
17092;DHT22;8661;45.700;4.880;2022-09-02T14:52:19;35.30;55.30
17092;DHT22;8661;45.700;4.880;2022-09-02T14:54:47;35.90;53.80
17092;DHT22;8661;45.700;4.880;2022-09-02T14:57:22;36.50;53.30
17092;DHT22;8661;45.700;4.880;2022-09-02T14:59:51;36.70;53.10
17092;DHT22;8661;45.700;4.880;2022-09-02T15:02:29;36.80;52.80
17092;DHT22;8661;45.700;4.880;2022-09-02T15:04:59;36.90;52.10
17092;DHT22;8661;45.700;4.880;2022-09-02T15:07:28;37.00;52.90
17092;DHT22;8661;45.700;4.880;2022-09-02T15:10:03;37.60;51.80
17092;DHT22;8661;45.700;4.880;2022-09-02T15:12:36;36.80;51.60
17092;DHT22;8661;45.700;4.880;2022-09-02T15:15:16;35.00;53.20
17092;DHT22;8661;45.700;4.880;2022-09-02T15:17:57;34.00;54.50
17092;DHT22;8661;45.700;4.880;2022-09-02T15:20:30;33.50;55.60
17092;DHT22;8661;45.700;4.880;2022-09-02T15:23:03;33.50;55.10
17092;DHT22;8661;45.700;4.880;2022-09-02T15:25:32;33.20;55.70
17092;DHT22;8661;45.700;4.880;2022-09-02T15:28:07;33.00;55.90
17092;DHT22;8661;45.700;4.880;2022-09-02T15:30:38;32.70;56.30
17092;DHT22;8661;45.700;4.880;2022-09-02T15:33:15;32.50;56.80
17092;DHT22;8661;45.700;4.880;2022-09-02T15:35:43;32.20;57.50
17092;DHT22;8661;45.700;4.880;2022-09-02T15:38:15;32.00;57.70
17092;DHT22;8661;45.700;4.880;2022-09-02T15:40:43;31.80;58.00
17092;DHT22;8661;45.700;4.880;2022-09-02T15:43:10;31.60;58.60
17092;DHT22;8661;45.700;4.880;2022-09-02T15:45:44;31.50;59.40
17092;DHT22;8661;45.700;4.880;2022-09-02T15:48:24;31.20;59.50
17092;DHT22;8661;45.700;4.880;2022-09-02T15:50:51;31.00;59.90
17092;DHT22;8661;45.700;4.880;2022-09-02T15:53:19;30.90;60.50
17092;DHT22;8661;45.700;4.880;2022-09-02T15:55:46;30.70;60.70
17092;DHT22;8661;45.700;4.880;2022-09-02T15:58:13;30.50;60.90
17092;DHT22;8661;45.700;4.880;2022-09-02T16:00:40;30.40;61.30
17092;DHT22;8661;45.700;4.880;2022-09-02T16:03:08;30.40;61.50
17092;DHT22;8661;45.700;4.880;2022-09-02T16:05:35;30.40;61.60
17092;DHT22;8661;45.700;4.880;2022-09-02T16:08:02;30.40;61.90
17092;DHT22;8661;45.700;4.880;2022-09-02T16:10:31;30.30;62.30
17092;DHT22;8661;45.700;4.880;2022-09-02T16:12:58;30.20;62.70
17092;DHT22;8661;45.700;4.880;2022-09-02T16:15:26;30.30;62.90
17092;DHT22;8661;45.700;4.880;2022-09-02T16:17:54;30.20;62.90
17092;DHT22;8661;45.700;4.880;2022-09-02T16:20:21;30.10;63.20
17092;DHT22;8661;45.700;4.880;2022-09-02T16:22:48;29.90;63.40
17092;DHT22;8661;45.700;4.880;2022-09-02T16:25:15;29.60;64.10
17092;DHT22;8661;45.700;4.880;2022-09-02T16:27:43;29.40;64.90
17092;DHT22;8661;45.700;4.880;2022-09-02T16:30:20;29.20;65.60
17092;DHT22;8661;45.700;4.880;2022-09-02T16:32:48;29.00;66.00
17092;DHT22;8661;45.700;4.880;2022-09-02T16:35:19;28.80;66.60
17092;DHT22;8661;45.700;4.880;2022-09-02T16:37:50;28.70;67.10
17092;DHT22;8661;45.700;4.880;2022-09-02T16:40:21;28.60;67.80
17092;DHT22;8661;45.700;4.880;2022-09-02T16:42:51;28.50;68.20
17092;DHT22;8661;45.700;4.880;2022-09-02T16:45:18;28.50;68.60
17092;DHT22;8661;45.700;4.880;2022-09-02T16:47:44;28.30;69.00
17092;DHT22;8661;45.700;4.880;2022-09-02T16:50:11;28.20;69.20
17092;DHT22;8661;45.700;4.880;2022-09-02T16:52:38;28.10;69.40
17092;DHT22;8661;45.700;4.880;2022-09-02T16:55:06;28.00;69.70
17092;DHT22;8661;45.700;4.880;2022-09-02T16:57:33;27.90;70.00
17092;DHT22;8661;45.700;4.880;2022-09-02T17:00:02;27.80;71.50
17092;DHT22;8661;45.700;4.880;2022-09-02T17:04:02;23.60;98.50
17092;DHT22;8661;45.700;4.880;2022-09-02T17:06:29;20.60;99.90
17092;DHT22;8661;45.700;4.880;2022-09-02T17:08:56;19.40;99.90